Puerto Nuevo, Puerto Rico
Current Conditions -  °F | °C
As of 11:56 AM on Tuesday 21 Oct 2014 (Local Time) from TJSJ Reporting Station
Scattered Clouds Scattered Clouds  
Wind Chill: 88°   Ceiling: Unl
Heat Index: 98°   Visibility: 10mi
Dew Point: 75°   Wind: 14mph
Humidity: 65%   Direction: 50°NE
Pressure: 29.95"   Gusts: NA
Location:  18.3905°N, 66.0903°W
Report Text: TJSJ 211556Z 05012KT 10SM SCT034 31/24 A2995 RMK AO2 SLP141 T03110239
Loading
Personal Weather Stations






























Interactive Weather Map
Tropical Storm Tracking
New forecast layout! Learn more

10-Day Weather Forecast

Advertisements
Track Severe Weather on mobile